createdAt,value
2018-07-07T05:02:58.475Z,95846.39
2018-07-07T05:08:01.797Z,95852.36
2018-07-07T05:13:05.119Z,95852.94
2018-07-07T05:18:08.447Z,95855.16
2018-07-07T05:23:11.796Z,95861.84
2018-07-07T05:28:15.890Z,95856.87
2018-07-07T05:33:19.223Z,95866.36
2018-07-07T05:38:22.554Z,95867.29
2018-07-07T05:43:26.674Z,95874.77
2018-07-07T05:48:31.692Z,95871.53
2018-07-07T05:53:35.024Z,95875.34
2018-07-07T05:58:38.353Z,95870.81
2018-07-07T06:03:42.449Z,95878.77
2018-07-07T06:08:45.774Z,95879.88
2018-07-07T06:13:49.134Z,95882.38
2018-07-07T06:18:59.251Z,95880.77
2018-07-07T06:24:02.743Z,95888.21
2018-07-07T06:29:18.570Z,95889.39
2018-07-07T06:34:21.898Z,95893.36
2018-07-07T06:39:25.265Z,95899.63
2018-07-07T06:44:28.635Z,95894.97
2018-07-07T06:49:31.999Z,95898.46
2018-07-07T06:54:35.340Z,95904.08
2018-07-07T06:59:38.729Z,95898.69
2018-07-07T07:04:42.044Z,95904.12
2018-07-07T07:09:45.452Z,95911.77
2018-07-07T07:14:49.628Z,95912.84
2018-07-07T07:19:54.382Z,95909.79
2018-07-07T07:24:57.889Z,95918.44
2018-07-07T07:30:18.335Z,95916.97
2018-07-07T07:35:22.431Z,95912.98
2018-07-07T07:40:25.834Z,95911.73
2018-07-07T07:45:29.959Z,95910.49
2018-07-07T07:50:34.314Z,95906.84
2018-07-07T07:55:38.692Z,95908.81
2018-07-07T08:01:13.778Z,95906.55
2018-07-07T08:06:17.107Z,95899.95
2018-07-07T08:11:20.443Z,95906.91
2018-07-07T08:16:23.781Z,95902.50
2018-07-07T08:21:27.115Z,95902.03
2018-07-07T08:26:30.449Z,95902.44
2018-07-07T08:31:33.782Z,95905.48
2018-07-07T08:36:37.131Z,95904.09
2018-07-07T08:41:40.484Z,95897.31
2018-07-07T08:46:43.806Z,95899.38
2018-07-07T08:51:47.139Z,95900.63
2018-07-07T08:56:50.485Z,95891.48
2018-07-07T09:01:53.810Z,95900.61
2018-07-07T09:06:57.138Z,95889.47
2018-07-07T09:12:00.471Z,95890.49
2018-07-07T09:17:03.793Z,95883.74
2018-07-07T09:22:07.126Z,95878.08
2018-07-07T09:27:11.223Z,95882.91
2018-07-07T09:32:14.555Z,95876.92
2018-07-07T09:37:17.891Z,95871.27
2018-07-07T09:42:21.227Z,95881.72
2018-07-07T09:47:34.782Z,95886.63
2018-07-07T09:52:38.110Z,95872.34
2018-07-07T09:57:41.443Z,95869.38
2018-07-07T10:02:44.795Z,95880.81
2018-07-07T10:07:48.163Z,95879.06
2018-07-07T10:12:51.486Z,95869.26
2018-07-07T10:17:54.810Z,95871.64
2018-07-07T10:22:58.155Z,95867.41
2018-07-07T10:28:01.484Z,95881.45
2018-07-07T10:33:04.810Z,95866.55
2018-07-07T10:38:08.585Z,95862.41
2018-07-07T10:43:12.687Z,95876.35
2018-07-07T10:48:16.022Z,95871.75
2018-07-07T10:53:19.356Z,95860.30
2018-07-07T10:58:22.694Z,95852.30
2018-07-07T11:03:26.021Z,95861.58
2018-07-07T11:08:29.354Z,95846.67
2018-07-07T11:13:32.692Z,95838.06
2018-07-07T11:18:36.778Z,95848.95
2018-07-07T11:23:40.106Z,95847.50
2018-07-07T11:28:43.445Z,95840.37
2018-07-07T11:33:47.541Z,95842.51
2018-07-07T11:38:50.874Z,95833.58
2018-07-07T11:43:54.205Z,95843.66
2018-07-07T11:48:58.294Z,95840.72
2018-07-07T11:54:01.627Z,95828.34
2018-07-07T11:59:15.644Z,95828.25
2018-07-07T12:04:20.250Z,95820.33
2018-07-07T12:09:25.575Z,95824.30
2018-07-07T12:14:28.911Z,95801.44
2018-07-07T12:19:32.238Z,95811.73
2018-07-07T12:24:36.327Z,95801.10
2018-07-07T12:29:39.695Z,95808.73
2018-07-07T12:34:43.047Z,95797.58
2018-07-07T12:39:51.114Z,95791.55
2018-07-07T12:44:55.415Z,95797.62
2018-07-07T12:50:00.702Z,95795.59
2018-07-07T12:55:04.027Z,95784.59
2018-07-07T13:00:09.051Z,95780.52
2018-07-07T13:05:12.543Z,95777.60
2018-07-07T13:10:19.095Z,95792.23
2018-07-07T13:15:22.464Z,95775.48
2018-07-07T13:20:43.664Z,95771.11
2018-07-07T13:25:47.712Z,95778.23
2018-07-07T13:30:51.154Z,95765.98
2018-07-07T13:35:54.478Z,95763.91
2018-07-07T13:40:58.928Z,95769.56
2018-07-07T13:46:04.324Z,95768.48
2018-07-07T13:51:08.799Z,95755.52
2018-07-07T13:56:13.558Z,95759.05
2018-07-07T14:01:17.954Z,95767.16
2018-07-07T14:06:21.500Z,95758.39
2018-07-07T14:11:27.643Z,95771.55
2018-07-07T14:16:30.967Z,95771.70
2018-07-07T14:21:34.294Z,95771.73
2018-07-07T14:26:37.624Z,95756.85
2018-07-07T14:31:40.979Z,95747.45
2018-07-07T14:36:44.312Z,95755.23
2018-07-07T14:41:47.653Z,95752.61
2018-07-07T14:46:50.989Z,95753.24
2018-07-07T14:51:55.089Z,95746.42
2018-07-07T14:56:58.503Z,95739.95
2018-07-07T15:02:01.837Z,95747.28
2018-07-07T15:07:05.942Z,95745.28
2018-07-07T15:12:09.269Z,95741.87
2018-07-07T15:17:12.615Z,95740.74
2018-07-07T15:22:15.946Z,95744.08
2018-07-07T15:27:19.274Z,95736.86
2018-07-07T15:32:22.711Z,95736.07
2018-07-07T15:37:26.062Z,95730.81
2018-07-07T15:42:30.147Z,95731.08
2018-07-07T15:47:33.484Z,95727.15
2018-07-07T15:52:36.809Z,95726.53
2018-07-07T15:57:40.177Z,95720.50
2018-07-07T16:02:43.529Z,95715.67
2018-07-07T16:07:46.878Z,95715.45
2018-07-07T16:12:50.211Z,95714.52
2018-07-07T16:17:53.563Z,95717.95
2018-07-07T16:22:56.890Z,95713.53
2018-07-07T16:28:00.219Z,95715.88
2018-07-07T16:33:03.549Z,95705.49
2018-07-07T16:38:06.874Z,95701.41
2018-07-07T16:43:10.195Z,95698.94
2018-07-07T16:48:14.295Z,95700.78
2018-07-07T16:53:17.642Z,95699.34
2018-07-07T16:58:20.983Z,95697.89
2018-07-07T17:03:24.312Z,95694.89
2018-07-07T17:08:27.634Z,95693.40
2018-07-07T17:13:30.976Z,95697.77
2018-07-07T17:18:34.305Z,95705.14
2018-07-07T17:23:38.451Z,95699.61
2018-07-07T17:28:41.749Z,95690.39
2018-07-07T17:33:45.091Z,95696.55
2018-07-07T17:38:48.413Z,95688.74
2018-07-07T17:43:51.751Z,95702.14
2018-07-07T17:48:55.082Z,95696.98
2018-07-07T17:53:58.415Z,95698.27
2018-07-07T17:59:01.757Z,95703.16
2018-07-07T18:04:05.177Z,95698.05
2018-07-07T18:09:10.447Z,95695.78
2018-07-07T18:14:13.782Z,95697.96
2018-07-07T18:19:17.129Z,95699.09
2018-07-07T18:24:20.451Z,95700.78
2018-07-07T18:29:23.831Z,95701.72
2018-07-07T18:34:27.210Z,95701.45
2018-07-07T18:39:30.536Z,95704.58
2018-07-07T18:44:33.885Z,95704.16
2018-07-07T18:49:37.234Z,95698.67
2018-07-07T18:54:40.558Z,95700.98
2018-07-07T18:59:43.884Z,95700.05
2018-07-07T19:04:47.223Z,95701.05
2018-07-07T19:10:05.155Z,95704.40
2018-07-07T19:15:08.575Z,95713.80
2018-07-07T19:20:27.146Z,95716.39
2018-07-07T19:31:00.740Z,95715.98
2018-07-07T19:41:35.602Z,95728.48
2018-07-07T19:46:44.872Z,95733.61
2018-07-07T19:51:48.728Z,95736.66
2018-07-07T19:56:52.073Z,95735.80
2018-07-07T20:01:55.406Z,95736.17
2018-07-07T20:06:58.733Z,95730.68
2018-07-07T20:12:02.840Z,95741.20
2018-07-07T20:17:06.162Z,95740.58
2018-07-07T20:22:09.508Z,95741.11
2018-07-07T20:27:12.860Z,95734.45
2018-07-07T20:32:16.218Z,95732.41
2018-07-07T20:37:20.307Z,95728.10
2018-07-07T20:42:23.633Z,95735.56
2018-07-07T20:47:26.958Z,95726.80
2018-07-07T20:52:30.298Z,95732.02
2018-07-07T20:57:33.620Z,95735.84
2018-07-07T21:02:37.722Z,95733.55
2018-07-07T21:07:41.068Z,95738.44
2018-07-07T21:12:44.404Z,95742.47
2018-07-07T21:17:47.791Z,95741.89
2018-07-07T21:22:51.083Z,95735.83
2018-07-07T21:27:55.170Z,95743.70
2018-07-07T21:32:58.495Z,95745.67
2018-07-07T21:38:01.828Z,95747.14
2018-07-07T21:43:05.155Z,95747.82
2018-07-07T21:48:09.245Z,95750.84
2018-07-07T21:53:12.577Z,95750.52
2018-07-07T21:58:15.906Z,95747.22
2018-07-07T22:08:47.944Z,95745.17
2018-07-07T22:13:54.813Z,95740.52
2018-07-07T22:18:58.941Z,95738.63
2018-07-07T22:24:02.276Z,95739.68
2018-07-07T22:29:07.993Z,95739.35
